sensor_id;sensor_type;location;lat;lon;timestamp;pressure;altitude;pressure_sealevel;temperature;humidity
61318;BME280;47201;40.428;-8.436;2022-12-24T00:01:05;101256.78;;;14.73;100.00
61318;BME280;47201;40.428;-8.436;2022-12-24T00:03:06;101255.03;;;14.73;100.00
61318;BME280;47201;40.428;-8.436;2022-12-24T00:05:07;101251.50;;;14.74;100.00
61318;BME280;47201;40.428;-8.436;2022-12-24T00:07:07;101259.38;;;14.78;100.00
61318;BME280;47201;40.428;-8.436;2022-12-24T00:09:08;101258.50;;;14.79;100.00
61318;BME280;47201;40.428;-8.436;2022-12-24T00:11:09;101263.72;;;14.82;100.00
61318;BME280;47201;40.428;-8.436;2022-12-24T00:13:10;101266.38;;;14.79;100.00
61318;BME280;47201;40.428;-8.436;2022-12-24T00:15:10;101256.69;;;14.82;100.00
61318;BME280;47201;40.428;-8.436;2022-12-24T00:17:11;101261.09;;;14.82;100.00
61318;BME280;47201;40.428;-8.436;2022-12-24T00:19:14;101262.00;;;14.78;100.00
61318;BME280;47201;40.428;-8.436;2022-12-24T00:21:15;101258.50;;;14.77;100.00
61318;BME280;47201;40.428;-8.436;2022-12-24T00:23:15;101253.25;;;14.75;100.00
61318;BME280;47201;40.428;-8.436;2022-12-24T00:25:16;101254.97;;;14.80;100.00
61318;BME280;47201;40.428;-8.436;2022-12-24T00:27:17;101254.91;;;14.83;100.00
61318;BME280;47201;40.428;-8.436;2022-12-24T00:29:17;101254.91;;;14.83;100.00
61318;BME280;47201;40.428;-8.436;2022-12-24T00:31:18;101256.69;;;14.85;100.00
61318;BME280;47201;40.428;-8.436;2022-12-24T00:33:19;101258.41;;;14.88;100.00
61318;BME280;47201;40.428;-8.436;2022-12-24T00:35:21;101248.72;;;14.88;100.00
61318;BME280;47201;40.428;-8.436;2022-12-24T00:37:22;101249.56;;;14.92;100.00
61318;BME280;47201;40.428;-8.436;2022-12-24T00:39:22;101254.84;;;14.92;100.00
61318;BME280;47201;40.428;-8.436;2022-12-24T00:41:23;101263.59;;;14.94;100.00
61318;BME280;47201;40.428;-8.436;2022-12-24T00:43:23;101255.72;;;14.93;100.00
61318;BME280;47201;40.428;-8.436;2022-12-24T00:45:24;101253.09;;;14.89;100.00
61318;BME280;47201;40.428;-8.436;2022-12-24T00:47:27;101249.63;;;14.89;100.00
61318;BME280;47201;40.428;-8.436;2022-12-24T00:49:27;101247.81;;;14.93;100.00
61318;BME280;47201;40.428;-8.436;2022-12-24T00:51:28;101245.09;;;14.97;100.00
61318;BME280;47201;40.428;-8.436;2022-12-24T00:53:29;101233.69;;;14.98;100.00
61318;BME280;47201;40.428;-8.436;2022-12-24T00:55:29;101238.03;;;15.04;100.00
61318;BME280;47201;40.428;-8.436;2022-12-24T00:57:30;101237.09;;;15.08;100.00
61318;BME280;47201;40.428;-8.436;2022-12-24T00:59:30;101232.72;;;15.09;100.00
61318;BME280;47201;40.428;-8.436;2022-12-24T01:01:31;101230.97;;;15.07;100.00
61318;BME280;47201;40.428;-8.436;2022-12-24T01:03:31;101237.06;;;15.11;100.00
61318;BME280;47201;40.428;-8.436;2022-12-24T01:05:35;101232.63;;;15.15;100.00
61318;BME280;47201;40.428;-8.436;2022-12-24T01:07:36;101229.97;;;15.18;100.00
61318;BME280;47201;40.428;-8.436;2022-12-24T01:09:37;101235.25;;;15.16;100.00
61318;BME280;47201;40.428;-8.436;2022-12-24T01:11:37;101234.38;;;15.16;100.00
61318;BME280;47201;40.428;-8.436;2022-12-24T01:13:38;101235.25;;;15.15;100.00
61318;BME280;47201;40.428;-8.436;2022-12-24T01:15:39;101237.00;;;15.19;100.00
61318;BME280;47201;40.428;-8.436;2022-12-24T01:17:39;101229.97;;;15.18;100.00
61318;BME280;47201;40.428;-8.436;2022-12-24T01:19:40;101229.09;;;15.17;100.00
61318;BME280;47201;40.428;-8.436;2022-12-24T01:21:40;101216.81;;;15.18;100.00
61318;BME280;47201;40.428;-8.436;2022-12-24T01:23:41;101221.13;;;15.22;100.00
61318;BME280;47201;40.428;-8.436;2022-12-24T01:25:45;101220.28;;;15.21;100.00
61318;BME280;47201;40.428;-8.436;2022-12-24T01:27:46;101214.97;;;15.23;100.00
61318;BME280;47201;40.428;-8.436;2022-12-24T01:29:46;101210.59;;;15.22;100.00
61318;BME280;47201;40.428;-8.436;2022-12-24T01:31:47;101214.97;;;15.23;100.00
61318;BME280;47201;40.428;-8.436;2022-12-24T01:33:47;101208.81;;;15.24;100.00
61318;BME280;47201;40.428;-8.436;2022-12-24T01:35:48;101212.31;;;15.26;100.00
61318;BME280;47201;40.428;-8.436;2022-12-24T01:37:48;101202.69;;;15.22;100.00
61318;BME280;47201;40.428;-8.436;2022-12-24T01:39:49;101205.34;;;15.20;100.00
61318;BME280;47201;40.428;-8.436;2022-12-24T01:41:50;101203.56;;;15.24;100.00
61318;BME280;47201;40.428;-8.436;2022-12-24T01:46:28;101203.50;;;15.27;100.00
61318;BME280;47201;40.428;-8.436;2022-12-24T01:48:44;101206.13;;;15.29;100.00
61318;BME280;47201;40.428;-8.436;2022-12-24T01:50:45;101202.63;;;15.27;100.00
61318;BME280;47201;40.428;-8.436;2022-12-24T01:52:46;101199.97;;;15.28;100.00
61318;BME280;47201;40.428;-8.436;2022-12-24T01:54:49;101200.84;;;15.30;100.00
61318;BME280;47201;40.428;-8.436;2022-12-24T01:56:51;101192.06;;;15.30;100.00
61318;BME280;47201;40.428;-8.436;2022-12-24T01:58:54;101202.59;;;15.31;100.00
61318;BME280;47201;40.428;-8.436;2022-12-24T02:00:56;101207.78;;;15.34;100.00
61318;BME280;47201;40.428;-8.436;2022-12-24T02:02:56;101206.00;;;15.36;100.00
61318;BME280;47201;40.428;-8.436;2022-12-24T02:07:03;101202.63;;;15.27;100.00
61318;BME280;47201;40.428;-8.436;2022-12-24T02:09:04;101201.66;;;15.34;100.00
61318;BME280;47201;40.428;-8.436;2022-12-24T02:11:15;101196.44;;;15.32;100.00
61318;BME280;47201;40.428;-8.436;2022-12-24T02:13:16;101201.63;;;15.35;100.00
61318;BME280;47201;40.428;-8.436;2022-12-24T02:15:18;101196.38;;;15.37;100.00
61318;BME280;47201;40.428;-8.436;2022-12-24T02:17:24;101194.59;;;15.37;100.00
61318;BME280;47201;40.428;-8.436;2022-12-24T02:19:47;101199.00;;;15.35;100.00
61318;BME280;47201;40.428;-8.436;2022-12-24T02:22:00;101206.06;;;15.33;100.00
61318;BME280;47201;40.428;-8.436;2022-12-24T02:24:09;101200.78;;;15.35;100.00
61318;BME280;47201;40.428;-8.436;2022-12-24T02:31:03;101196.28;;;15.42;100.00
61318;BME280;47201;40.428;-8.436;2022-12-24T02:37:32;101195.44;;;15.39;100.00
61318;BME280;47201;40.428;-8.436;2022-12-24T02:39:42;101185.84;;;15.34;100.00
61318;BME280;47201;40.428;-8.436;2022-12-24T02:41:47;101191.16;;;15.32;100.00
61318;BME280;47201;40.428;-8.436;2022-12-24T02:44:07;101194.69;;;15.31;100.00
61318;BME280;47201;40.428;-8.436;2022-12-24T02:46:12;101187.69;;;15.27;100.00
61318;BME280;47201;40.428;-8.436;2022-12-24T02:48:14;101184.22;;;15.25;100.00
61318;BME280;47201;40.428;-8.436;2022-12-24T02:50:17;101174.59;;;15.24;100.00
61318;BME280;47201;40.428;-8.436;2022-12-24T02:52:34;101181.59;;;15.23;100.00
61318;BME280;47201;40.428;-8.436;2022-12-24T02:54:35;101180.78;;;15.21;100.00
61318;BME280;47201;40.428;-8.436;2022-12-24T02:56:38;101189.56;;;15.20;100.00
61318;BME280;47201;40.428;-8.436;2022-12-24T03:07:42;101179.06;;;15.19;100.00
61318;BME280;47201;40.428;-8.436;2022-12-24T03:09:52;101181.69;;;15.19;100.00
61318;BME280;47201;40.428;-8.436;2022-12-24T03:12:00;101174.66;;;15.18;100.00
61318;BME280;47201;40.428;-8.436;2022-12-24T03:14:03;101174.66;;;15.18;100.00
61318;BME280;47201;40.428;-8.436;2022-12-24T03:16:04;101181.72;;;15.16;100.00
61318;BME280;47201;40.428;-8.436;2022-12-24T03:18:06;101175.56;;;15.15;100.00
61318;BME280;47201;40.428;-8.436;2022-12-24T03:20:08;101169.38;;;15.19;100.00
61318;BME280;47201;40.428;-8.436;2022-12-24T03:22:10;101165.81;;;15.22;100.00
61318;BME280;47201;40.428;-8.436;2022-12-24T03:24:11;101157.03;;;15.23;100.00
61318;BME280;47201;40.428;-8.436;2022-12-24T03:26:15;101162.31;;;15.23;100.00
61318;BME280;47201;40.428;-8.436;2022-12-24T03:28:16;101154.34;;;15.28;100.00
61318;BME280;47201;40.428;-8.436;2022-12-24T03:30:19;101157.84;;;15.28;100.00
61318;BME280;47201;40.428;-8.436;2022-12-24T03:32:29;101144.53;;;15.37;100.00
61318;BME280;47201;40.428;-8.436;2022-12-24T03:34:30;101140.25;;;15.30;100.00
61318;BME280;47201;40.428;-8.436;2022-12-24T03:36:30;101134.09;;;15.31;100.00
61318;BME280;47201;40.428;-8.436;2022-12-24T03:38:31;101136.63;;;15.37;100.00
61318;BME280;47201;40.428;-8.436;2022-12-24T03:40:32;101141.13;;;15.32;100.00
61318;BME280;47201;40.428;-8.436;2022-12-24T03:42:32;101144.66;;;15.30;100.00
61318;BME280;47201;40.428;-8.436;2022-12-24T03:44:33;101132.38;;;15.27;100.00
61318;BME280;47201;40.428;-8.436;2022-12-24T03:46:33;101137.69;;;15.26;100.00
61318;BME280;47201;40.428;-8.436;2022-12-24T03:48:34;101129.75;;;15.27;100.00
61318;BME280;47201;40.428;-8.436;2022-12-24T03:50:35;101126.31;;;15.22;100.00
61318;BME280;47201;40.428;-8.436;2022-12-24T03:52:35;101127.25;;;15.19;100.00
61318;BME280;47201;40.428;-8.436;2022-12-24T03:54:36;101124.66;;;15.15;100.00
61318;BME280;47201;40.428;-8.436;2022-12-24T03:56:36;101122.06;;;15.13;100.00
61318;BME280;47201;40.428;-8.436;2022-12-24T03:58:37;101116.81;;;15.13;100.00
61318;BME280;47201;40.428;-8.436;2022-12-24T04:00:37;101117.63;;;15.17;100.00
61318;BME280;47201;40.428;-8.436;2022-12-24T04:02:38;101110.63;;;15.16;100.00
61318;BME280;47201;40.428;-8.436;2022-12-24T04:04:39;101112.38;;;15.14;100.00
61318;BME280;47201;40.428;-8.436;2022-12-24T04:06:39;101114.94;;;15.20;100.00
61318;BME280;47201;40.428;-8.436;2022-12-24T04:08:40;101113.06;;;15.30;100.00
61318;BME280;47201;40.428;-8.436;2022-12-24T04:10:41;101112.19;;;15.28;100.00
61318;BME280;47201;40.428;-8.436;2022-12-24T04:12:44;101115.75;;;15.25;100.00
61318;BME280;47201;40.428;-8.436;2022-12-24T04:14:45;101113.94;;;15.27;100.00
61318;BME280;47201;40.428;-8.436;2022-12-24T04:16:45;101106.97;;;15.26;100.00
61318;BME280;47201;40.428;-8.436;2022-12-24T04:18:46;101109.31;;;15.45;100.00
61318;BME280;47201;40.428;-8.436;2022-12-24T04:20:46;101107.47;;;15.51;100.00
61318;BME280;47201;40.428;-8.436;2022-12-24T04:22:47;101103.94;;;15.52;100.00
61318;BME280;47201;40.428;-8.436;2022-12-24T04:24:47;101108.31;;;15.52;100.00
61318;BME280;47201;40.428;-8.436;2022-12-24T04:26:48;101099.56;;;15.50;100.00
61318;BME280;47201;40.428;-8.436;2022-12-24T04:28:48;101103.09;;;15.49;100.00
61318;BME280;47201;40.428;-8.436;2022-12-24T04:30:49;101098.75;;;15.48;100.00
61318;BME280;47201;40.428;-8.436;2022-12-24T04:32:49;101098.75;;;15.48;100.00
61318;BME280;47201;40.428;-8.436;2022-12-24T04:34:50;101094.28;;;15.50;100.00
61318;BME280;47201;40.428;-8.436;2022-12-24T04:36:50;101087.28;;;15.49;100.00
61318;BME280;47201;40.428;-8.436;2022-12-24T04:38:51;101094.38;;;15.44;100.00
61318;BME280;47201;40.428;-8.436;2022-12-24T04:42:58;101093.53;;;15.42;100.00
61318;BME280;47201;40.428;-8.436;2022-12-24T04:44:59;101084.81;;;15.38;100.00
61318;BME280;47201;40.428;-8.436;2022-12-24T04:46:59;101075.16;;;15.38;100.00
61318;BME280;47201;40.428;-8.436;2022-12-24T04:49:00;101080.47;;;15.35;100.00
61318;BME280;47201;40.428;-8.436;2022-12-24T04:51:01;101069.94;;;15.35;100.00
61318;BME280;47201;40.428;-8.436;2022-12-24T04:53:02;101066.44;;;15.35;100.00
61318;BME280;47201;40.428;-8.436;2022-12-24T04:55:03;101068.25;;;15.31;100.00
61318;BME280;47201;40.428;-8.436;2022-12-24T04:57:03;101067.41;;;15.29;100.00
61318;BME280;47201;40.428;-8.436;2022-12-24T04:59:04;101055.94;;;15.33;100.00
61318;BME280;47201;40.428;-8.436;2022-12-24T05:01:05;101065.66;;;15.28;100.00
61318;BME280;47201;40.428;-8.436;2022-12-24T05:03:06;101053.34;;;15.30;100.00
61318;BME280;47201;40.428;-8.436;2022-12-24T05:05:07;101048.09;;;15.27;100.00
61318;BME280;47201;40.428;-8.436;2022-12-24T05:07:07;101050.84;;;15.22;100.00
61318;BME280;47201;40.428;-8.436;2022-12-24T05:09:08;101052.66;;;15.19;100.00
61318;BME280;47201;40.428;-8.436;2022-12-24T05:11:09;101042.03;;;15.22;100.00
61318;BME280;47201;40.428;-8.436;2022-12-24T05:13:10;101049.91;;;15.25;100.00
61318;BME280;47201;40.428;-8.436;2022-12-24T05:15:10;101043.72;;;15.28;100.00
61318;BME280;47201;40.428;-8.436;2022-12-24T05:17:11;101039.31;;;15.30;100.00
61318;BME280;47201;40.428;-8.436;2022-12-24T05:19:11;101040.16;;;15.30;100.00
61318;BME280;47201;40.428;-8.436;2022-12-24T05:21:16;101036.69;;;15.28;100.00
61318;BME280;47201;40.428;-8.436;2022-12-24T05:23:18;101030.63;;;15.23;100.00
61318;BME280;47201;40.428;-8.436;2022-12-24T05:25:37;101030.59;;;15.25;100.00
61318;BME280;47201;40.428;-8.436;2022-12-24T05:27:57;101034.97;;;15.26;100.00
61318;BME280;47201;40.428;-8.436;2022-12-24T05:29:57;101032.38;;;15.24;100.00
61318;BME280;47201;40.428;-8.436;2022-12-24T05:31:58;101035.00;;;15.24;100.00
61318;BME280;47201;40.428;-8.436;2022-12-24T05:33:59;101028.03;;;15.21;100.00
61318;BME280;47201;40.428;-8.436;2022-12-24T05:35:59;101032.44;;;15.19;100.00
61318;BME280;47201;40.428;-8.436;2022-12-24T05:38:00;101030.66;;;15.21;100.00
61318;BME280;47201;40.428;-8.436;2022-12-24T05:40:00;101024.50;;;15.21;100.00
61318;BME280;47201;40.428;-8.436;2022-12-24T05:42:01;101020.94;;;15.25;100.00
61318;BME280;47201;40.428;-8.436;2022-12-24T05:44:01;101017.41;;;15.26;100.00
61318;BME280;47201;40.428;-8.436;2022-12-24T05:46:03;101023.56;;;15.23;100.00
61318;BME280;47201;40.428;-8.436;2022-12-24T05:48:04;101019.19;;;15.24;100.00
61318;BME280;47201;40.428;-8.436;2022-12-24T05:50:07;101015.69;;;15.23;100.00
61318;BME280;47201;40.428;-8.436;2022-12-24T05:52:08;101013.03;;;15.25;100.00
61318;BME280;47201;40.428;-8.436;2022-12-24T05:54:08;101011.41;;;15.18;100.00
61318;BME280;47201;40.428;-8.436;2022-12-24T05:56:10;101013.09;;;15.22;100.00
61318;BME280;47201;40.428;-8.436;2022-12-24T05:58:11;101002.63;;;15.19;100.00
61318;BME280;47201;40.428;-8.436;2022-12-24T06:00:14;101002.50;;;15.23;100.00
61318;BME280;47201;40.428;-8.436;2022-12-24T06:02:15;100997.25;;;15.23;100.00
61318;BME280;47201;40.428;-8.436;2022-12-24T06:04:15;100998.13;;;15.24;100.00
61318;BME280;47201;40.428;-8.436;2022-12-24T06:06:17;100991.16;;;15.20;100.00
61318;BME280;47201;40.428;-8.436;2022-12-24T06:08:18;100991.97;;;15.25;100.00
61318;BME280;47201;40.428;-8.436;2022-12-24T06:10:19;101003.44;;;15.21;100.00
61318;BME280;47201;40.428;-8.436;2022-12-24T06:12:19;100999.91;;;15.22;100.00
61318;BME280;47201;40.428;-8.436;2022-12-24T06:14:20;101001.63;;;15.26;100.00
61318;BME280;47201;40.428;-8.436;2022-12-24T06:16:21;100998.94;;;15.28;100.00
61318;BME280;47201;40.428;-8.436;2022-12-24T06:18:22;101002.59;;;15.20;100.00
61318;BME280;47201;40.428;-8.436;2022-12-24T06:20:22;100992.94;;;15.19;100.00
61318;BME280;47201;40.428;-8.436;2022-12-24T06:22:23;100998.16;;;15.21;100.00
61318;BME280;47201;40.428;-8.436;2022-12-24T06:24:23;100999.03;;;15.23;100.00
61318;BME280;47201;40.428;-8.436;2022-12-24T06:26:24;101002.69;;;15.14;100.00
61318;BME280;47201;40.428;-8.436;2022-12-24T06:28:25;100995.78;;;15.07;100.00
61318;BME280;47201;40.428;-8.436;2022-12-24T06:30:25;100993.31;;;14.96;100.00
61318;BME280;47201;40.428;-8.436;2022-12-24T06:32:26;101002.19;;;14.87;100.00
61318;BME280;47201;40.428;-8.436;2022-12-24T06:34:26;100997.84;;;14.85;100.00
61318;BME280;47201;40.428;-8.436;2022-12-24T06:36:27;100992.56;;;14.86;100.00
61318;BME280;47201;40.428;-8.436;2022-12-24T06:38:31;100993.47;;;14.85;100.00
61318;BME280;47201;40.428;-8.436;2022-12-24T06:40:31;100993.38;;;14.91;100.00
61318;BME280;47201;40.428;-8.436;2022-12-24T06:42:32;100990.75;;;14.91;100.00
61318;BME280;47201;40.428;-8.436;2022-12-24T06:44:32;100995.94;;;14.95;100.00
61318;BME280;47201;40.428;-8.436;2022-12-24T06:46:33;100997.72;;;14.94;100.00
61318;BME280;47201;40.428;-8.436;2022-12-24T06:48:33;101001.34;;;14.87;100.00
61318;BME280;47201;40.428;-8.436;2022-12-24T06:50:34;100997.91;;;14.80;100.00
61318;BME280;47201;40.428;-8.436;2022-12-24T06:52:35;100988.31;;;14.78;100.00
61318;BME280;47201;40.428;-8.436;2022-12-24T06:54:35;100997.06;;;14.80;100.00
61318;BME280;47201;40.428;-8.436;2022-12-24T06:56:36;101001.41;;;14.82;100.00
61318;BME280;47201;40.428;-8.436;2022-12-24T06:58:36;100999.66;;;14.81;100.00
61318;BME280;47201;40.428;-8.436;2022-12-24T07:00:37;100996.09;;;14.85;100.00
61318;BME280;47201;40.428;-8.436;2022-12-24T07:02:38;100997.00;;;14.83;100.00
61318;BME280;47201;40.428;-8.436;2022-12-24T07:04:39;100997.00;;;14.83;100.00
61318;BME280;47201;40.428;-8.436;2022-12-24T07:06:39;100995.19;;;14.86;100.00
61318;BME280;47201;40.428;-8.436;2022-12-24T07:08:41;100997.78;;;14.89;100.00
61318;BME280;47201;40.428;-8.436;2022-12-24T07:10:44;101003.09;;;14.88;100.00
61318;BME280;47201;40.428;-8.436;2022-12-24T07:12:45;100999.63;;;14.84;100.00
61318;BME280;47201;40.428;-8.436;2022-12-24T07:14:45;101003.16;;;14.83;100.00
61318;BME280;47201;40.428;-8.436;2022-12-24T07:16:46;101000.59;;;14.77;100.00
61318;BME280;47201;40.428;-8.436;2022-12-24T07:18:46;100997.91;;;14.82;100.00
61318;BME280;47201;40.428;-8.436;2022-12-24T07:20:47;101002.22;;;14.86;100.00
61318;BME280;47201;40.428;-8.436;2022-12-24T07:22:47;100996.94;;;14.87;100.00
61318;BME280;47201;40.428;-8.436;2022-12-24T07:24:48;101002.25;;;14.83;100.00
61318;BME280;47201;40.428;-8.436;2022-12-24T07:26:48;101000.59;;;14.75;100.00
61318;BME280;47201;40.428;-8.436;2022-12-24T07:28:49;101000.53;;;14.82;100.00
61318;BME280;47201;40.428;-8.436;2022-12-24T07:30:49;100997.94;;;14.79;100.00
61318;BME280;47201;40.428;-8.436;2022-12-24T07:32:50;101004.94;;;14.80;100.00
61318;BME280;47201;40.428;-8.436;2022-12-24T07:34:50;101002.38;;;14.75;100.00
61318;BME280;47201;40.428;-8.436;2022-12-24T07:36:51;100999.78;;;14.72;100.00
61318;BME280;47201;40.428;-8.436;2022-12-24T07:38:51;100994.50;;;14.73;100.00
61318;BME280;47201;40.428;-8.436;2022-12-24T07:40:52;101002.47;;;14.69;100.00
61318;BME280;47201;40.428;-8.436;2022-12-24T07:42:52;101000.72;;;14.68;100.00
61318;BME280;47201;40.428;-8.436;2022-12-24T07:44:53;100999.91;;;14.63;100.00
61318;BME280;47201;40.428;-8.436;2022-12-24T07:46:53;101000.84;;;14.57;100.00
61318;BME280;47201;40.428;-8.436;2022-12-24T07:48:54;101005.31;;;14.52;100.00
61318;BME280;47201;40.428;-8.436;2022-12-24T07:50:55;100995.66;;;14.51;100.00
61318;BME280;47201;40.428;-8.436;2022-12-24T07:52:55;100990.47;;;14.44;100.00
61318;BME280;47201;40.428;-8.436;2022-12-24T07:54:56;100979.97;;;14.43;100.00
61318;BME280;47201;40.428;-8.436;2022-12-24T07:56:57;100986.94;;;14.46;100.00
61318;BME280;47201;40.428;-8.436;2022-12-24T07:58:57;100979.09;;;14.41;100.00
61318;BME280;47201;40.428;-8.436;2022-12-24T08:00:58;100985.22;;;14.43;100.00
61318;BME280;47201;40.428;-8.436;2022-12-24T08:02:59;100985.19;;;14.48;100.00
61318;BME280;47201;40.428;-8.436;2022-12-24T08:04:59;100990.47;;;14.44;100.00
61318;BME280;47201;40.428;-8.436;2022-12-24T08:07:01;100992.22;;;14.46;100.00
61318;BME280;47201;40.428;-8.436;2022-12-24T08:09:01;100998.44;;;14.40;100.00
61318;BME280;47201;40.428;-8.436;2022-12-24T08:11:03;100997.59;;;14.36;100.00
61318;BME280;47201;40.428;-8.436;2022-12-24T08:13:04;100984.34;;;14.44;100.00
61318;BME280;47201;40.428;-8.436;2022-12-24T08:15:05;100997.41;;;14.52;100.00
61318;BME280;47201;40.428;-8.436;2022-12-24T08:17:05;100995.59;;;14.54;100.00
61318;BME280;47201;40.428;-8.436;2022-12-24T08:19:06;100992.97;;;14.54;100.00
61318;BME280;47201;40.428;-8.436;2022-12-24T08:21:07;100994.69;;;14.56;100.00
61318;BME280;47201;40.428;-8.436;2022-12-24T08:23:08;100999.97;;;14.58;100.00
61318;BME280;47201;40.428;-8.436;2022-12-24T08:25:08;101000.78;;;14.60;100.00
61318;BME280;47201;40.428;-8.436;2022-12-24T08:27:09;101004.22;;;14.68;100.00
61318;BME280;47201;40.428;-8.436;2022-12-24T08:29:10;101011.19;;;14.72;100.00
61318;BME280;47201;40.428;-8.436;2022-12-24T08:31:11;101007.63;;;14.75;100.00
61318;BME280;47201;40.428;-8.436;2022-12-24T08:33:11;101011.06;;;14.82;100.00
61318;BME280;47201;40.428;-8.436;2022-12-24T08:35:15;101005.69;;;14.89;100.00
61318;BME280;47201;40.428;-8.436;2022-12-24T08:37:16;101002.03;;;14.98;100.00
61318;BME280;47201;40.428;-8.436;2022-12-24T08:39:16;101019.47;;;15.07;100.00
61318;BME280;47201;40.428;-8.436;2022-12-24T08:41:17;101005.28;;;15.16;100.00
61318;BME280;47201;40.428;-8.436;2022-12-24T08:43:17;101008.53;;;15.32;100.00
61318;BME280;47201;40.428;-8.436;2022-12-24T08:45:18;101018.78;;;15.50;100.00
61318;BME280;47201;40.428;-8.436;2022-12-24T08:47:19;101007.16;;;15.62;100.00
61318;BME280;47201;40.428;-8.436;2022-12-24T08:49:19;101009.59;;;15.71;100.00
61318;BME280;47201;40.428;-8.436;2022-12-24T08:51:20;101025.38;;;15.75;100.00
61318;BME280;47201;40.428;-8.436;2022-12-24T08:53:20;101018.31;;;15.77;100.00
61318;BME280;47201;40.428;-8.436;2022-12-24T08:55:21;101016.50;;;15.79;100.00
61318;BME280;47201;40.428;-8.436;2022-12-24T08:57:22;101019.13;;;15.79;100.00
61318;BME280;47201;40.428;-8.436;2022-12-24T08:59:22;101020.81;;;15.84;100.00
61318;BME280;47201;40.428;-8.436;2022-12-24T09:01:23;101005.59;;;16.00;100.00
61318;BME280;47201;40.428;-8.436;2022-12-24T09:03:23;101017.44;;;16.25;100.00
61318;BME280;47201;40.428;-8.436;2022-12-24T09:05:24;101013.44;;;16.47;100.00
61318;BME280;47201;40.428;-8.436;2022-12-24T09:07:25;101006.94;;;17.41;100.00
61318;BME280;47201;40.428;-8.436;2022-12-24T09:09:25;101001.03;;;18.60;94.70
61318;BME280;47201;40.428;-8.436;2022-12-24T09:11:28;101001.06;;;19.17;88.71
61318;BME280;47201;40.428;-8.436;2022-12-24T09:13:28;101013.63;;;19.37;86.41
61318;BME280;47201;40.428;-8.436;2022-12-24T09:15:31;101002.16;;;20.14;81.39
61318;BME280;47201;40.428;-8.436;2022-12-24T09:17:32;101006.88;;;20.77;77.78
61318;BME280;47201;40.428;-8.436;2022-12-24T09:19:33;101011.47;;;21.38;73.70
61318;BME280;47201;40.428;-8.436;2022-12-24T09:21:33;100999.81;;;22.24;69.16
61318;BME280;47201;40.428;-8.436;2022-12-24T09:23:34;101007.50;;;22.11;67.87
61318;BME280;47201;40.428;-8.436;2022-12-24T09:25:43;101008.84;;;22.78;65.33
61318;BME280;47201;40.428;-8.436;2022-12-24T09:27:43;101008.44;;;22.69;65.28
61318;BME280;47201;40.428;-8.436;2022-12-24T09:29:44;101020.34;;;22.98;63.75
61318;BME280;47201;40.428;-8.436;2022-12-24T09:31:44;101009.72;;;22.20;66.72
61318;BME280;47201;40.428;-8.436;2022-12-24T09:33:45;101013.13;;;21.84;68.88
61318;BME280;47201;40.428;-8.436;2022-12-24T09:35:49;101010.13;;;22.31;66.83
61318;BME280;47201;40.428;-8.436;2022-12-24T09:37:50;101009.91;;;22.93;63.96
61318;BME280;47201;40.428;-8.436;2022-12-24T09:40:02;101007.59;;;23.92;60.13
61318;BME280;47201;40.428;-8.436;2022-12-24T09:44:07;101003.78;;;24.48;57.41
61318;BME280;47201;40.428;-8.436;2022-12-24T09:46:16;101009.69;;;23.70;60.43
61318;BME280;47201;40.428;-8.436;2022-12-24T09:48:20;101006.47;;;23.63;60.33
61318;BME280;47201;40.428;-8.436;2022-12-24T09:50:25;101000.34;;;23.26;61.43
61318;BME280;47201;40.428;-8.436;2022-12-24T09:52:29;100995.72;;;22.35;66.01
61318;BME280;47201;40.428;-8.436;2022-12-24T09:54:36;101001.25;;;21.07;72.25
61318;BME280;47201;40.428;-8.436;2022-12-24T09:56:39;100987.97;;;19.90;77.98
61318;BME280;47201;40.428;-8.436;2022-12-24T09:58:41;100995.97;;;19.36;81.33
61318;BME280;47201;40.428;-8.436;2022-12-24T10:00:45;100995.13;;;18.80;85.67
61318;BME280;47201;40.428;-8.436;2022-12-24T10:02:47;100991.38;;;18.58;88.02
61318;BME280;47201;40.428;-8.436;2022-12-24T10:04:47;100984.09;;;18.36;89.45
61318;BME280;47201;40.428;-8.436;2022-12-24T10:09:14;100981.22;;;17.81;93.25
61318;BME280;47201;40.428;-8.436;2022-12-24T10:15:29;100978.47;;;17.51;96.33
61318;BME280;47201;40.428;-8.436;2022-12-24T10:26:42;100982.75;;;18.21;93.34
61318;BME280;47201;40.428;-8.436;2022-12-24T10:28:52;100986.38;;;18.48;92.13
61318;BME280;47201;40.428;-8.436;2022-12-24T10:30:54;100978.94;;;18.61;90.50
61318;BME280;47201;40.428;-8.436;2022-12-24T10:32:57;100974.09;;;18.46;90.63
61318;BME280;47201;40.428;-8.436;2022-12-24T10:37:21;100974.78;;;18.52;90.37
61318;BME280;47201;40.428;-8.436;2022-12-24T10:39:23;100980.41;;;19.27;85.89
61318;BME280;47201;40.428;-8.436;2022-12-24T10:41:24;100972.25;;;20.33;78.72
61318;BME280;47201;40.428;-8.436;2022-12-24T10:43:27;100979.56;;;20.50;77.55
61318;BME280;47201;40.428;-8.436;2022-12-24T10:45:31;100967.53;;;20.63;77.40
61318;BME280;47201;40.428;-8.436;2022-12-24T10:47:36;100974.06;;;20.78;75.78
61318;BME280;47201;40.428;-8.436;2022-12-24T10:49:44;100981.63;;;20.65;76.14
61318;BME280;47201;40.428;-8.436;2022-12-24T10:53:48;100975.53;;;19.92;78.98
61318;BME280;47201;40.428;-8.436;2022-12-24T10:55:51;100978.69;;;19.51;81.89
61318;BME280;47201;40.428;-8.436;2022-12-24T10:58:01;100976.19;;;19.21;83.64
61318;BME280;47201;40.428;-8.436;2022-12-24T11:00:04;100970.00;;;18.94;84.50
61318;BME280;47201;40.428;-8.436;2022-12-24T11:02:23;100973.66;;;18.88;85.69
61318;BME280;47201;40.428;-8.436;2022-12-24T11:04:25;100976.81;;;18.73;84.57
61318;BME280;47201;40.428;-8.436;2022-12-24T11:06:26;100984.28;;;18.60;85.12
61318;BME280;47201;40.428;-8.436;2022-12-24T11:08:27;100976.34;;;18.60;85.46